Time;durP1;ratioP1;P1;durP2;ratioP2;P2;SDS_P1;SDS_P2;PMS_P1;PMS_P2;Temp;Humidity;BMP_temperature;BMP_pressure;BME280_temperature;BME280_humidity;BME280_pressure;Samples;Min_cycle;Max_cycle;Signal;HPM_P1;HPM_P2
2023/05/04 00:00:29;;;;;;;111.40;30.90;;;;;;;;;;110206;1278;22449;-76
2023/05/04 00:03:12;;;;;;;85.50;25.00;;;;;;;;;;110368;1278;22847;-76
2023/05/04 00:05:40;;;;;;;108.30;28.90;;;;;;;;;;110156;1278;22105;-76
2023/05/04 00:08:06;;;;;;;76.70;22.70;;;;;;;;;;110147;1256;22142;-77
2023/05/04 00:10:33;;;;;;;69.50;21.20;;;;;;;;;;110172;1275;22912;-76
2023/05/04 00:13:00;;;;;;;79.30;24.10;;;;;;;;;;110365;1278;22894;-76
2023/05/04 00:15:29;;;;;;;57.40;18.20;;;;;;;;;;110225;1278;22203;-76
2023/05/04 00:17:56;;;;;;;52.60;16.80;;;;;;;;;;110359;1278;22150;-76
2023/05/04 00:20:26;;;;;;;48.90;15.60;;;;;;;;;;110564;1259;22010;-76
2023/05/04 00:22:54;;;;;;;57.30;18.00;;;;;;;;;;110154;1278;22110;-76
2023/05/04 00:25:20;;;;;;;52.50;17.80;;;;;;;;;;110235;1278;22757;-76
2023/05/04 00:27:47;;;;;;;53.20;18.80;;;;;;;;;;110182;1278;22830;-76
2023/05/04 00:30:14;;;;;;;58.40;20.00;;;;;;;;;;110379;1262;22859;-77
2023/05/04 00:32:42;;;;;;;58.80;20.10;;;;;;;;;;110217;1278;22126;-76
2023/05/04 00:35:08;;;;;;;64.60;20.70;;;;;;;;;;110381;1278;22954;-77
2023/05/04 00:37:36;;;;;;;64.90;21.20;;;;;;;;;;110107;1279;22909;-76
2023/05/04 00:40:05;;;;;;;61.50;19.60;;;;;;;;;;110352;1259;22239;-77
2023/05/04 00:42:33;;;;;;;58.50;18.70;;;;;;;;;;110282;1279;22102;-76
2023/05/04 00:45:01;;;;;;;55.40;17.30;;;;;;;;;;110184;1279;22149;-77
2023/05/04 00:47:29;;;;;;;57.40;18.60;;;;;;;;;;110308;1279;22813;-76
2023/05/04 00:49:56;;;;;;;51.70;17.70;;;;;;;;;;110136;1261;22113;-76
2023/05/04 00:52:23;;;;;;;58.30;18.40;;;;;;;;;;110127;1279;22869;-76
2023/05/04 00:54:50;;;;;;;50.10;16.80;;;;;;;;;;110106;1279;22098;-76
2023/05/04 00:57:18;;;;;;;46.90;15.50;;;;;;;;;;110082;1279;22809;-77
2023/05/04 00:59:46;;;;;;;42.00;14.00;;;;;;;;;;110282;1257;22200;-76
2023/05/04 01:02:14;;;;;;;33.80;12.30;;;;;;;;;;110305;1279;22088;-76
2023/05/04 01:04:42;;;;;;;25.60;10.30;;;;;;;;;;110178;1279;22799;-76
2023/05/04 01:07:27;;;;;;;38.10;12.50;;;;;;;;;;110135;1275;22106;-76
2023/05/04 01:10:01;;;;;;;38.70;14.20;;;;;;;;;;110186;1261;22320;-76
2023/05/04 01:12:32;;;;;;;41.40;14.40;;;;;;;;;;110100;1279;22157;-76
2023/05/04 01:14:59;;;;;;;41.50;14.70;;;;;;;;;;110122;1279;22234;-76
2023/05/04 01:17:29;;;;;;;43.70;15.90;;;;;;;;;;110064;1279;22299;-77
2023/05/04 01:19:57;;;;;;;41.30;16.30;;;;;;;;;;110277;1256;22088;-76
2023/05/04 01:22:26;;;;;;;48.50;17.50;;;;;;;;;;110094;1279;22211;-76
2023/05/04 01:24:55;;;;;;;51.60;17.70;;;;;;;;;;110311;1279;22841;-76
2023/05/04 01:27:23;;;;;;;44.60;17.60;;;;;;;;;;110119;1279;22097;-77
2023/05/04 01:29:59;;;;;;;50.30;19.00;;;;;;;;;;110142;1255;22203;-76
2023/05/04 01:32:28;;;;;;;36.90;15.40;;;;;;;;;;110111;1279;22324;-76
2023/05/04 01:34:58;;;;;;;37.60;16.20;;;;;;;;;;110085;1279;22105;-76
2023/05/04 01:37:26;;;;;;;42.20;16.50;;;;;;;;;;110047;1280;22160;-76
2023/05/04 01:39:55;;;;;;;37.30;16.00;;;;;;;;;;110048;1256;22101;-76
2023/05/04 01:42:25;;;;;;;44.90;17.40;;;;;;;;;;110077;1280;23085;-76
2023/05/04 01:44:55;;;;;;;41.00;16.90;;;;;;;;;;110205;1280;22139;-77
2023/05/04 01:47:25;;;;;;;39.00;17.20;;;;;;;;;;110235;1280;22306;-76
2023/05/04 01:49:54;;;;;;;35.90;15.80;;;;;;;;;;110161;1276;22118;-76
2023/05/04 01:52:24;;;;;;;34.90;16.40;;;;;;;;;;110538;1263;22084;-76
2023/05/04 01:54:53;;;;;;;38.70;14.90;;;;;;;;;;110231;1279;22315;-76
2023/05/04 01:57:26;;;;;;;37.10;15.10;;;;;;;;;;110175;1279;22172;-76
2023/05/04 01:59:55;;;;;;;45.30;15.30;;;;;;;;;;110124;1279;22775;-77
2023/05/04 02:02:27;;;;;;;35.60;14.80;;;;;;;;;;110397;1261;21704;-76
2023/05/04 02:04:57;;;;;;;34.00;14.20;;;;;;;;;;110203;1279;22736;-76
2023/05/04 02:07:26;;;;;;;37.10;14.50;;;;;;;;;;110141;1279;22341;-76
2023/05/04 02:09:55;;;;;;;33.90;14.30;;;;;;;;;;110207;1279;22155;-76
2023/05/04 02:12:24;;;;;;;32.40;13.80;;;;;;;;;;110246;1262;22102;-76
2023/05/04 02:14:53;;;;;;;34.00;14.50;;;;;;;;;;110154;1279;22121;-76
2023/05/04 02:17:22;;;;;;;32.20;13.60;;;;;;;;;;110220;1279;22056;-77
2023/05/04 02:19:51;;;;;;;31.70;13.60;;;;;;;;;;110098;1279;22221;-76
2023/05/04 02:22:20;;;;;;;31.70;12.40;;;;;;;;;;110320;1263;22189;-76
2023/05/04 02:24:49;;;;;;;30.10;12.80;;;;;;;;;;110214;1279;22021;-76
2023/05/04 02:27:19;;;;;;;34.70;13.40;;;;;;;;;;110092;1279;22719;-77
2023/05/04 02:29:48;;;;;;;25.50;11.50;;;;;;;;;;110235;1277;22168;-77
2023/05/04 02:32:17;;;;;;;31.20;12.60;;;;;;;;;;110310;1262;22212;-77
2023/05/04 02:34:46;;;;;;;27.40;11.00;;;;;;;;;;110140;1279;22175;-76
2023/05/04 02:44:24;;;;;;;22.10;10.50;;;;;;;;;;103792;1292;545618;-76
2023/05/04 02:46:51;;;;;;;26.80;12.10;;;;;;;;;;105985;1288;22618;-80
2023/05/04 02:49:18;;;;;;;29.40;12.20;;;;;;;;;;105972;1288;22530;-79
2023/05/04 02:51:46;;;;;;;28.40;12.80;;;;;;;;;;106186;1288;22625;-77
2023/05/04 02:54:13;;;;;;;24.20;11.80;;;;;;;;;;106003;1272;25352;-78
2023/05/04 02:56:40;;;;;;;28.20;12.20;;;;;;;;;;106183;1288;22547;-78
2023/05/04 02:59:07;;;;;;;27.90;11.30;;;;;;;;;;104124;1285;2821602;-78
2023/05/04 03:01:33;;;;;;;23.60;10.70;;;;;;;;;;106327;1285;25238;-76
2023/05/04 03:04:04;;;;;;;27.50;12.00;;;;;;;;;;106334;1267;25339;-80
2023/05/04 03:06:33;;;;;;;27.30;10.50;;;;;;;;;;106346;1285;22527;-79
2023/05/04 03:09:11;;;;;;;22.50;9.20;;;;;;;;;;106401;1285;25256;-76
2023/05/04 03:11:38;;;;;;;24.20;9.40;;;;;;;;;;106008;1285;24378;-79
2023/05/04 03:14:05;;;;;;;22.20;9.70;;;;;;;;;;105979;1283;22633;-76
2023/05/04 03:16:32;;;;;;;22.60;9.60;;;;;;;;;;106278;1285;22604;-80
2023/05/04 03:19:02;;;;;;;26.70;11.30;;;;;;;;;;106354;1285;25318;-77
2023/05/04 03:21:31;;;;;;;27.60;11.00;;;;;;;;;;106395;1285;25336;-78
2023/05/04 03:23:59;;;;;;;24.20;10.70;;;;;;;;;;106498;1264;25331;-78
2023/05/04 03:26:27;;;;;;;29.60;10.80;;;;;;;;;;106008;1273;22576;-77
2023/05/04 03:28:57;;;;;;;28.30;11.80;;;;;;;;;;106142;1285;24256;-78
2023/05/04 03:31:24;;;;;;;29.40;10.90;;;;;;;;;;106023;1283;25290;-76
2023/05/04 03:33:51;;;;;;;25.50;10.70;;;;;;;;;;106208;1286;22672;-75
2023/05/04 03:36:18;;;;;;;24.50;10.20;;;;;;;;;;106325;1286;25450;-75
2023/05/04 03:38:45;;;;;;;28.10;10.70;;;;;;;;;;106015;1287;25475;-76
2023/05/04 03:41:17;;;;;;;21.50;8.90;;;;;;;;;;106033;1287;22658;-82
2023/05/04 03:43:44;;;;;;;18.80;8.30;;;;;;;;;;106035;1282;22537;-78
2023/05/04 03:46:11;;;;;;;20.10;8.30;;;;;;;;;;106059;1270;22675;-80
2023/05/04 03:48:44;;;;;;;17.40;7.60;;;;;;;;;;106025;1287;22543;-83
2023/05/04 03:51:14;;;;;;;20.80;8.40;;;;;;;;;;106278;1287;25408;-77
2023/05/04 03:53:41;;;;;;;18.90;7.70;;;;;;;;;;106056;1287;23882;-80
2023/05/04 03:56:08;;;;;;;24.70;8.20;;;;;;;;;;105985;1270;22562;-79
2023/05/04 03:58:35;;;;;;;19.50;7.20;;;;;;;;;;106003;1287;22649;-78
2023/05/04 04:01:28;;;;;;;17.80;8.00;;;;;;;;;;106282;1287;24244;-82
2023/05/04 04:04:05;;;;;;;22.20;8.00;;;;;;;;;;106346;1287;25402;-75
2023/05/04 04:06:32;;;;;;;24.00;8.70;;;;;;;;;;106178;1279;23011;-81
2023/05/04 04:08:59;;;;;;;19.70;8.00;;;;;;;;;;105998;1288;22729;-81
2023/05/04 04:11:29;;;;;;;22.80;8.40;;;;;;;;;;106004;1288;25342;-77
2023/05/04 04:13:56;;;;;;;20.60;9.80;;;;;;;;;;106011;1288;22812;-79
2023/05/04 04:16:23;;;;;;;24.70;8.80;;;;;;;;;;106145;1269;25348;-81
2023/05/04 04:18:50;;;;;;;29.00;10.40;;;;;;;;;;106033;1287;22621;-77
2023/05/04 04:21:17;;;;;;;38.70;11.80;;;;;;;;;;106202;1287;22536;-82
2023/05/04 04:23:44;;;;;;;56.30;17.40;;;;;;;;;;106199;1287;24378;-79
2023/05/04 04:26:11;;;;;;;75.50;23.00;;;;;;;;;;106175;1280;22534;-77
2023/05/04 04:28:38;;;;;;;118.60;32.00;;;;;;;;;;106222;1287;22537;-79
2023/05/04 04:31:05;;;;;;;97.50;27.00;;;;;;;;;;106056;1287;22544;-78
2023/05/04 04:33:33;;;;;;;70.80;19.60;;;;;;;;;;106021;1287;23908;-76
2023/05/04 04:36:00;;;;;;;34.70;12.60;;;;;;;;;;106027;1270;24392;-80
2023/05/04 04:38:27;;;;;;;35.10;12.10;;;;;;;;;;106205;1287;26478;-79
2023/05/04 04:40:54;;;;;;;29.00;10.50;;;;;;;;;;106243;1287;22647;-76
2023/05/04 04:43:21;;;;;;;30.70;11.40;;;;;;;;;;106237;1287;22653;-82
2023/05/04 04:45:57;;;;;;;27.90;11.10;;;;;;;;;;106164;1287;22671;-77
2023/05/04 04:48:36;;;;;;;35.40;13.50;;;;;;;;;;106288;1287;25252;-76
2023/05/04 04:51:08;;;;;;;53.50;19.20;;;;;;;;;;106297;1287;25366;-79
2023/05/04 04:53:44;;;;;;;53.40;18.30;;;;;;;;;;106009;1287;22537;-77
2023/05/04 04:56:11;;;;;;;64.60;22.00;;;;;;;;;;106158;1269;22534;-80
2023/05/04 04:58:37;;;;;;;71.80;23.10;;;;;;;;;;105980;1287;25288;-76
2023/05/04 05:01:16;;;;;;;65.40;21.40;;;;;;;;;;106012;1287;22742;-78
2023/05/04 05:03:44;;;;;;;59.20;19.30;;;;;;;;;;106023;1287;22537;-82
2023/05/04 05:06:11;;;;;;;64.20;23.40;;;;;;;;;;106214;1280;24235;-80
2023/05/04 05:08:38;;;;;;;64.20;22.00;;;;;;;;;;106216;1287;22533;-80
2023/05/04 05:11:05;;;;;;;61.70;21.60;;;;;;;;;;106227;1287;23103;-76
2023/05/04 05:13:32;;;;;;;61.80;21.00;;;;;;;;;;106306;1287;24203;-83
2023/05/04 05:15:59;;;;;;;49.70;19.60;;;;;;;;;;106047;1286;24259;-76
2023/05/04 05:18:28;;;;;;;41.20;17.00;;;;;;;;;;106203;1269;24372;-76
2023/05/04 05:20:55;;;;;;;39.10;15.90;;;;;;;;;;106354;1287;25284;-77
2023/05/04 05:23:22;;;;;;;40.90;15.90;;;;;;;;;;106193;1287;25213;-80
2023/05/04 05:25:49;;;;;;;38.80;15.20;;;;;;;;;;106313;1287;23283;-80
2023/05/04 05:28:18;;;;;;;27.50;12.90;;;;;;;;;;105992;1271;23879;-77
2023/05/04 05:30:45;;;;;;;26.20;11.30;;;;;;;;;;106345;1263;22527;-78
2023/05/04 05:33:14;;;;;;;27.50;13.40;;;;;;;;;;106213;1287;24386;-82
2023/05/04 05:35:42;;;;;;;27.90;12.30;;;;;;;;;;106016;1287;22554;-77
2023/05/04 05:38:09;;;;;;;23.20;11.20;;;;;;;;;;106169;1269;23914;-78
2023/05/04 05:40:35;;;;;;;27.70;11.60;;;;;;;;;;106215;1287;23008;-83
2023/05/04 05:43:04;;;;;;;23.10;10.80;;;;;;;;;;106222;1277;22530;-81
2023/05/04 05:45:31;;;;;;;32.30;10.50;;;;;;;;;;106061;1287;22646;-78
2023/05/04 05:47:57;;;;;;;26.10;9.70;;;;;;;;;;105995;1283;22548;-81
2023/05/04 05:50:25;;;;;;;23.20;9.80;;;;;;;;;;106376;1286;25290;-77
2023/05/04 05:52:51;;;;;;;25.20;10.50;;;;;;;;;;106270;1287;22533;-82
2023/05/04 05:55:18;;;;;;;23.30;9.30;;;;;;;;;;106311;1287;22788;-80
2023/05/04 05:57:45;;;;;;;21.10;9.90;;;;;;;;;;106320;1270;25236;-77
2023/05/04 06:00:12;;;;;;;20.60;8.00;;;;;;;;;;106335;1287;25314;-80
2023/05/04 06:02:39;;;;;;;18.50;7.80;;;;;;;;;;106266;1287;25266;-80
2023/05/04 06:05:06;;;;;;;22.20;8.10;;;;;;;;;;106198;1287;22543;-79
2023/05/04 06:07:33;;;;;;;16.70;7.30;;;;;;;;;;105996;1287;22532;-83
2023/05/04 06:10:00;;;;;;;18.80;6.80;;;;;;;;;;106214;1287;23904;-80
2023/05/04 06:12:27;;;;;;;15.00;6.50;;;;;;;;;;106305;1287;22552;-78
2023/05/04 06:14:56;;;;;;;19.50;7.10;;;;;;;;;;106258;1287;22532;-78
2023/05/04 06:17:25;;;;;;;15.30;6.40;;;;;;;;;;106215;1264;22538;-79
2023/05/04 06:19:52;;;;;;;14.30;6.50;;;;;;;;;;106030;1287;27229;-80
2023/05/04 06:22:24;;;;;;;12.40;4.90;;;;;;;;;;106318;1287;22654;-75
2023/05/04 06:24:51;;;;;;;14.80;5.60;;;;;;;;;;106073;1287;22536;-78
2023/05/04 06:27:18;;;;;;;12.70;5.40;;;;;;;;;;106246;1287;22484;-76
2023/05/04 06:29:47;;;;;;;14.80;4.70;;;;;;;;;;105949;1270;25360;-77
2023/05/04 06:32:14;;;;;;;14.50;5.30;;;;;;;;;;106085;1287;22677;-80
2023/05/04 06:34:44;;;;;;;12.20;4.50;;;;;;;;;;106296;1287;22542;-84
2023/05/04 06:37:10;;;;;;;14.00;4.70;;;;;;;;;;106217;1287;24429;-81
2023/05/04 06:39:37;;;;;;;11.90;4.70;;;;;;;;;;106280;1282;23908;-78
2023/05/04 06:42:04;;;;;;;11.80;4.40;;;;;;;;;;105998;1287;22545;-83
2023/05/04 06:44:36;;;;;;;13.10;4.90;;;;;;;;;;106297;1287;25414;-77
2023/05/04 06:47:04;;;;;;;14.30;4.30;;;;;;;;;;106226;1287;25690;-80
2023/05/04 06:49:31;;;;;;;12.50;4.70;;;;;;;;;;106278;1269;25233;-83
2023/05/04 06:51:58;;;;;;;9.70;3.70;;;;;;;;;;106289;1287;22493;-78
2023/05/04 06:54:32;;;;;;;10.40;4.00;;;;;;;;;;106947;1275;25310;-76
2023/05/04 06:57:01;;;;;;;11.40;4.30;;;;;;;;;;106822;1275;24966;-80
2023/05/04 06:59:28;;;;;;;10.30;4.10;;;;;;;;;;107099;1275;22526;-81
2023/05/04 07:01:58;;;;;;;9.00;4.10;;;;;;;;;;106847;1275;22529;-82
2023/05/04 07:04:34;;;;;;;14.10;4.30;;;;;;;;;;106942;1275;22547;-84
2023/05/04 07:07:01;;;;;;;9.20;3.80;;;;;;;;;;106939;1275;22527;-85
2023/05/04 07:09:27;;;;;;;10.80;3.80;;;;;;;;;;106831;1259;22541;-84
2023/05/04 07:11:54;;;;;;;12.50;4.00;;;;;;;;;;106864;1275;24047;-81
2023/05/04 07:14:21;;;;;;;11.20;4.60;;;;;;;;;;106880;1275;24200;-81
2023/05/04 07:16:47;;;;;;;11.50;4.40;;;;;;;;;;106885;1276;22604;-78
2023/05/04 07:19:17;;;;;;;10.80;3.70;;;;;;;;;;106865;1258;22533;-79
2023/05/04 07:21:53;;;;;;;9.40;4.20;;;;;;;;;;107077;1275;22517;-83
2023/05/04 07:24:19;;;;;;;10.70;3.70;;;;;;;;;;107028;1275;23834;-84
2023/05/04 07:26:46;;;;;;;9.80;3.80;;;;;;;;;;107073;1272;23588;-83
2023/05/04 07:29:13;;;;;;;8.10;3.50;;;;;;;;;;107010;1258;22528;-83
2023/05/04 07:31:39;;;;;;;8.80;3.80;;;;;;;;;;106905;1275;22636;-82
2023/05/04 07:34:06;;;;;;;9.90;3.70;;;;;;;;;;106861;1275;22531;-78
2023/05/04 07:36:35;;;;;;;9.60;3.90;;;;;;;;;;107039;1275;22550;-85
2023/05/04 07:39:02;;;;;;;9.10;3.70;;;;;;;;;;107039;1254;29961;-80
2023/05/04 07:41:29;;;;;;;8.80;3.70;;;;;;;;;;107048;1275;24644;-79
2023/05/04 07:43:56;;;;;;;7.90;3.10;;;;;;;;;;106940;1275;23895;-78
2023/05/04 07:46:22;;;;;;;8.90;3.30;;;;;;;;;;107048;1276;22516;-79
2023/05/04 07:48:49;;;;;;;8.90;3.10;;;;;;;;;;107094;1275;22743;-78
2023/05/04 07:51:16;;;;;;;8.10;3.20;;;;;;;;;;107010;1256;22649;-78
2023/05/04 07:53:42;;;;;;;8.20;2.50;;;;;;;;;;107029;1275;24082;-82
2023/05/04 07:56:11;;;;;;;8.70;2.80;;;;;;;;;;107060;1275;24249;-79
2023/05/04 07:58:38;;;;;;;7.80;2.30;;;;;;;;;;107053;1275;24246;-79
2023/05/04 08:01:04;;;;;;;8.50;2.50;;;;;;;;;;107093;1253;22550;-79
2023/05/04 08:03:31;;;;;;;7.20;2.70;;;;;;;;;;107065;1275;25347;-80
2023/05/04 08:05:58;;;;;;;7.60;3.10;;;;;;;;;;107062;1275;22480;-78
2023/05/04 08:08:25;;;;;;;6.50;2.20;;;;;;;;;;107078;1275;22517;-83
2023/05/04 08:10:52;;;;;;;7.60;2.30;;;;;;;;;;107034;1256;22536;-84
2023/05/04 08:13:22;;;;;;;7.10;2.30;;;;;;;;;;106917;1275;24190;-82
2023/05/04 08:15:48;;;;;;;7.90;2.20;;;;;;;;;;107054;1264;24519;-79
2023/05/04 08:18:15;;;;;;;8.10;2.70;;;;;;;;;;107064;1272;22532;-79
2023/05/04 08:20:42;;;;;;;7.60;2.80;;;;;;;;;;106864;1265;22516;-77
2023/05/04 08:23:09;;;;;;;6.70;2.30;;;;;;;;;;107047;1253;22525;-77
2023/05/04 08:25:36;;;;;;;5.90;2.20;;;;;;;;;;107048;1275;22523;-83
2023/05/04 08:28:02;;;;;;;7.60;2.30;;;;;;;;;;106936;1275;25275;-77
2023/05/04 08:30:30;;;;;;;6.80;2.20;;;;;;;;;;107047;1256;25315;-81
2023/05/04 08:32:58;;;;;;;5.40;2.10;;;;;;;;;;106895;1275;24199;-77
2023/05/04 08:35:26;;;;;;;6.90;2.60;;;;;;;;;;107049;1275;25353;-77
2023/05/04 08:37:53;;;;;;;10.40;2.90;;;;;;;;;;107019;1275;22550;-83
2023/05/04 08:40:20;;;;;;;6.90;2.30;;;;;;;;;;106892;1275;26299;-83
2023/05/04 08:42:49;;;;;;;6.20;2.10;;;;;;;;;;107087;1275;25233;-80
2023/05/04 08:45:16;;;;;;;6.30;2.10;;;;;;;;;;107049;1275;22547;-79
2023/05/04 08:47:43;;;;;;;6.20;2.20;;;;;;;;;;107066;1275;24356;-82
2023/05/04 08:50:11;;;;;;;7.70;2.80;;;;;;;;;;107041;1275;22494;-77
2023/05/04 08:52:42;;;;;;;8.60;2.60;;;;;;;;;;106877;1257;22521;-78
2023/05/04 08:55:10;;;;;;;6.40;2.70;;;;;;;;;;107012;1275;22602;-81
2023/05/04 08:57:38;;;;;;;6.20;2.40;;;;;;;;;;107057;1275;22520;-84
2023/05/04 09:00:05;;;;;;;7.40;2.40;;;;;;;;;;106914;1275;22533;-84
2023/05/04 09:02:32;;;;;;;5.80;2.10;;;;;;;;;;106898;1257;22646;-83
2023/05/04 09:05:00;;;;;;;7.00;2.70;;;;;;;;;;106863;1275;22559;-77
2023/05/04 09:07:27;;;;;;;7.00;2.90;;;;;;;;;;107052;1276;24180;-77
2023/05/04 09:09:54;;;;;;;22.10;10.80;;;;;;;;;;106922;1275;24190;-77
2023/05/04 09:12:20;;;;;;;10.00;4.00;;;;;;;;;;107019;1257;25325;-78
2023/05/04 09:14:47;;;;;;;10.00;3.30;;;;;;;;;;107076;1275;22527;-80
2023/05/04 09:17:16;;;;;;;7.70;2.90;;;;;;;;;;106883;1275;22520;-80
2023/05/04 09:19:43;;;;;;;13.30;4.80;;;;;;;;;;107107;1275;25299;-79
2023/05/04 09:22:14;;;;;;;11.20;4.10;;;;;;;;;;107041;1256;22543;-78
2023/05/04 09:24:41;;;;;;;7.20;3.20;;;;;;;;;;107038;1275;22521;-78
2023/05/04 09:27:14;;;;;;;8.90;2.70;;;;;;;;;;107058;1275;22520;-83
2023/05/04 09:29:41;;;;;;;7.40;2.90;;;;;;;;;;107021;1275;22523;-84
2023/05/04 09:32:14;;;;;;;8.30;3.00;;;;;;;;;;106878;1275;25438;-78
2023/05/04 09:34:50;;;;;;;8.10;3.00;;;;;;;;;;107093;1275;22559;-82
2023/05/04 09:37:21;;;;;;;8.40;3.20;;;;;;;;;;107014;1275;22528;-77
2023/05/04 09:39:52;;;;;;;9.80;2.80;;;;;;;;;;106908;1275;22597;-80
2023/05/04 09:42:20;;;;;;;7.40;3.10;;;;;;;;;;107032;1256;25233;-77
2023/05/04 09:44:57;;;;;;;9.20;3.10;;;;;;;;;;107022;1275;22536;-84
2023/05/04 09:47:37;;;;;;;7.30;3.00;;;;;;;;;;107031;1275;22642;-81
2023/05/04 09:50:10;;;;;;;9.80;3.70;;;;;;;;;;107047;1276;22519;-78
2023/05/04 09:52:38;;;;;;;8.40;3.20;;;;;;;;;;106904;1259;22535;-78
2023/05/04 09:55:06;;;;;;;8.00;3.00;;;;;;;;;;107045;1275;22595;-83
2023/05/04 09:57:34;;;;;;;8.70;3.50;;;;;;;;;;107045;1275;22545;-76
2023/05/04 10:00:03;;;;;;;9.00;3.30;;;;;;;;;;106881;1275;22520;-82
2023/05/04 10:02:33;;;;;;;9.30;3.40;;;;;;;;;;106910;1269;25214;-81
2023/05/04 10:05:00;;;;;;;8.70;3.90;;;;;;;;;;106904;1275;24435;-80
2023/05/04 10:07:31;;;;;;;8.30;3.30;;;;;;;;;;106910;1275;22653;-78
2023/05/04 10:10:00;;;;;;;8.60;3.50;;;;;;;;;;106983;1275;22491;-77
2023/05/04 10:12:27;;;;;;;9.50;3.60;;;;;;;;;;106923;1257;25327;-78
2023/05/04 10:14:54;;;;;;;6.00;2.70;;;;;;;;;;107000;1275;22535;-82
2023/05/04 10:17:34;;;;;;;8.70;3.30;;;;;;;;;;107019;1275;22657;-78
2023/05/04 10:20:16;;;;;;;8.50;3.30;;;;;;;;;;107039;1275;24313;-81
2023/05/04 10:22:57;;;;;;;8.00;3.10;;;;;;;;;;107020;1275;22536;-80
2023/05/04 10:25:42;;;;;;;7.70;3.00;;;;;;;;;;107020;1275;22541;-83
2023/05/04 10:28:25;;;;;;;10.30;3.60;;;;;;;;;;107118;1275;24995;-77
2023/05/04 10:30:56;;;;;;;7.00;3.00;;;;;;;;;;107054;1275;22543;-77
2023/05/04 10:33:24;;;;;;;7.90;3.00;;;;;;;;;;107052;1256;25447;-77
2023/05/04 10:35:52;;;;;;;9.70;3.00;;;;;;;;;;107082;1275;24209;-79
2023/05/04 10:38:19;;;;;;;7.40;2.90;;;;;;;;;;107036;1275;22523;-81
2023/05/04 10:40:49;;;;;;;7.60;3.00;;;;;;;;;;106915;1275;22651;-78
2023/05/04 10:43:23;;;;;;;7.80;3.00;;;;;;;;;;107006;1256;25425;-84
2023/05/04 10:45:50;;;;;;;7.70;3.30;;;;;;;;;;107106;1275;24551;-77
2023/05/04 10:48:17;;;;;;;7.70;3.00;;;;;;;;;;106966;1272;25291;-76
2023/05/04 10:50:46;;;;;;;9.00;2.90;;;;;;;;;;106856;1269;22612;-80
2023/05/04 10:53:23;;;;;;;6.60;2.60;;;;;;;;;;106848;1258;23864;-76
2023/05/04 10:55:50;;;;;;;7.10;2.90;;;;;;;;;;106840;1270;22526;-80
2023/05/04 10:58:27;;;;;;;8.30;3.20;;;;;;;;;;106852;1273;22526;-76
2023/05/04 11:00:54;;;;;;;8.50;3.90;;;;;;;;;;106721;1274;22480;-81
2023/05/04 11:03:23;;;;;;;8.40;3.20;;;;;;;;;;106887;1256;22517;-76
2023/05/04 11:05:55;;;;;;;8.90;3.30;;;;;;;;;;107308;1269;25347;-84
2023/05/04 11:08:23;;;;;;;8.00;3.00;;;;;;;;;;107099;1256;24256;-76
2023/05/04 11:11:03;;;;;;;7.80;3.30;;;;;;;;;;107097;1269;22533;-78
2023/05/04 11:13:32;;;;;;;7.60;3.00;;;;;;;;;;107030;1269;22519;-81
2023/05/04 11:16:01;;;;;;;8.90;3.50;;;;;;;;;;106937;1269;22541;-77
2023/05/04 11:18:30;;;;;;;7.80;2.90;;;;;;;;;;107079;1269;22757;-77
2023/05/04 11:20:57;;;;;;;8.50;3.10;;;;;;;;;;107077;1270;22513;-79
2023/05/04 11:23:25;;;;;;;7.60;3.50;;;;;;;;;;106900;1253;25475;-80
2023/05/04 11:25:52;;;;;;;7.30;3.00;;;;;;;;;;106877;1269;24256;-77
2023/05/04 11:28:18;;;;;;;9.10;3.40;;;;;;;;;;107071;1268;24387;-77
2023/05/04 11:30:48;;;;;;;6.50;3.30;;;;;;;;;;106859;1269;22526;-77
2023/05/04 11:33:16;;;;;;;8.50;3.60;;;;;;;;;;106809;1272;25374;-80
2023/05/04 11:35:43;;;;;;;9.10;3.50;;;;;;;;;;106867;1258;22533;-82
2023/05/04 11:38:12;;;;;;;7.80;3.60;;;;;;;;;;106866;1269;22520;-79
2023/05/04 11:40:46;;;;;;;8.20;4.00;;;;;;;;;;106842;1269;24190;-78
2023/05/04 11:43:21;;;;;;;8.20;3.40;;;;;;;;;;106776;1270;22525;-76
2023/05/04 11:45:52;;;;;;;10.00;3.90;;;;;;;;;;106847;1259;22523;-79
2023/05/04 11:48:20;;;;;;;8.90;3.70;;;;;;;;;;107026;1269;24239;-81
2023/05/04 11:50:47;;;;;;;7.60;3.30;;;;;;;;;;106981;1268;25236;-76
2023/05/04 11:53:20;;;;;;;8.40;3.80;;;;;;;;;;106962;1264;22799;-77
2023/05/04 11:55:53;;;;;;;8.10;3.10;;;;;;;;;;106852;1259;24218;-80
2023/05/04 11:58:27;;;;;;;7.20;3.00;;;;;;;;;;106907;1265;22640;-80
2023/05/04 12:00:54;;;;;;;6.80;3.00;;;;;;;;;;106858;1269;23889;-79
2023/05/04 12:03:27;;;;;;;6.90;3.10;;;;;;;;;;107037;1268;26673;-78
2023/05/04 12:05:55;;;;;;;8.00;3.10;;;;;;;;;;106793;1269;22524;-78
2023/05/04 12:08:25;;;;;;;7.10;2.90;;;;;;;;;;106818;1269;22526;-82
2023/05/04 12:11:11;;;;;;;8.20;3.40;;;;;;;;;;106785;1268;22564;-77
2023/05/04 12:13:39;;;;;;;8.50;3.40;;;;;;;;;;106697;1269;24241;-77
2023/05/04 12:16:09;;;;;;;11.10;3.60;;;;;;;;;;106822;1256;22476;-83
2023/05/04 12:18:36;;;;;;;7.50;2.80;;;;;;;;;;106835;1268;22523;-78
2023/05/04 12:21:10;;;;;;;7.70;3.50;;;;;;;;;;106820;1268;22524;-80
2023/05/04 12:23:38;;;;;;;9.10;3.30;;;;;;;;;;107032;1252;22657;-78
2023/05/04 12:26:05;;;;;;;7.80;3.20;;;;;;;;;;106857;1257;25384;-77
2023/05/04 12:28:32;;;;;;;12.30;3.60;;;;;;;;;;106865;1276;23760;-85
2023/05/04 12:30:59;;;;;;;7.60;3.30;;;;;;;;;;106856;1276;22511;-84
2023/05/04 12:33:26;;;;;;;7.60;3.50;;;;;;;;;;106878;1276;25332;-81
2023/05/04 12:35:53;;;;;;;9.40;3.50;;;;;;;;;;106857;1258;25227;-76
2023/05/04 12:38:20;;;;;;;8.90;3.40;;;;;;;;;;106908;1276;24228;-83
2023/05/04 12:40:46;;;;;;;7.60;3.50;;;;;;;;;;106848;1276;23892;-82
2023/05/04 12:43:13;;;;;;;7.30;3.60;;;;;;;;;;106910;1269;25353;-78
2023/05/04 12:45:40;;;;;;;9.20;3.90;;;;;;;;;;107001;1256;22636;-78
2023/05/04 12:48:06;;;;;;;8.40;4.10;;;;;;;;;;107083;1268;24300;-80
2023/05/04 12:50:34;;;;;;;24.80;21.90;;;;;;;;;;107051;1269;22554;-79
2023/05/04 12:53:03;;;;;;;8.20;4.20;;;;;;;;;;106907;1269;25328;-79
2023/05/04 12:55:30;;;;;;;8.80;5.00;;;;;;;;;;107089;1269;22523;-80
2023/05/04 12:57:57;;;;;;;24.20;13.90;;;;;;;;;;106957;1269;22516;-81
2023/05/04 13:00:24;;;;;;;9.70;4.20;;;;;;;;;;106735;1272;22533;-80
2023/05/04 13:02:51;;;;;;;9.80;3.70;;;;;;;;;;106903;1275;25482;-81
2023/05/04 13:05:19;;;;;;;12.10;5.70;;;;;;;;;;106975;1269;23805;-79
2023/05/04 13:07:49;;;;;;;10.90;4.60;;;;;;;;;;106891;1259;22524;-78
2023/05/04 13:10:17;;;;;;;9.60;4.40;;;;;;;;;;107092;1269;22962;-79
2023/05/04 13:12:44;;;;;;;10.00;4.00;;;;;;;;;;106905;1274;22523;-79
2023/05/04 13:15:12;;;;;;;12.30;4.10;;;;;;;;;;107095;1270;22945;-80
2023/05/04 13:17:42;;;;;;;9.20;4.40;;;;;;;;;;107031;1269;22550;-79
2023/05/04 13:20:10;;;;;;;8.50;4.40;;;;;;;;;;106875;1269;22527;-78
2023/05/04 13:22:37;;;;;;;8.60;3.80;;;;;;;;;;106996;1270;22618;-77
2023/05/04 13:25:04;;;;;;;12.90;4.40;;;;;;;;;;107073;1269;22524;-77
2023/05/04 13:27:32;;;;;;;10.00;4.80;;;;;;;;;;107606;1259;25328;-78
2023/05/04 13:30:09;;;;;;;9.10;3.90;;;;;;;;;;106964;1269;24194;-80
2023/05/04 13:32:36;;;;;;;7.10;3.10;;;;;;;;;;107013;1252;22520;-80
2023/05/04 13:35:06;;;;;;;8.70;4.00;;;;;;;;;;107014;1270;22520;-81
2023/05/04 13:37:33;;;;;;;7.90;3.70;;;;;;;;;;106994;1257;24219;-81
2023/05/04 13:47:02;;;;;;;9.10;4.40;;;;;;;;;;103805;1305;545464;-82
2023/05/04 13:49:29;;;;;;;7.80;3.90;;;;;;;;;;106045;1288;22556;-78
2023/05/04 13:51:56;;;;;;;11.50;4.00;;;;;;;;;;106366;1275;22502;-84
2023/05/04 13:54:23;;;;;;;7.60;4.00;;;;;;;;;;106720;1280;22526;-78
2023/05/04 13:56:50;;;;;;;11.70;4.10;;;;;;;;;;106775;1263;22584;-78
2023/05/04 13:59:17;;;;;;;9.90;3.90;;;;;;;;;;106907;1280;22927;-77
2023/05/04 14:01:44;;;;;;;8.40;4.20;;;;;;;;;;104648;1277;3040231;-78
2023/05/04 14:04:10;;;;;;;8.60;4.00;;;;;;;;;;106949;1277;23034;-81
2023/05/04 14:06:37;;;;;;;8.40;4.10;;;;;;;;;;106863;1259;24499;-78
2023/05/04 14:09:04;;;;;;;8.20;3.80;;;;;;;;;;106851;1277;26493;-77
2023/05/04 14:11:30;;;;;;;9.30;4.60;;;;;;;;;;106857;1259;22523;-82
2023/05/04 14:13:57;;;;;;;9.80;5.40;;;;;;;;;;106839;1277;22589;-80
2023/05/04 14:16:25;;;;;;;10.30;5.90;;;;;;;;;;106816;1254;22479;-81
2023/05/04 14:18:52;;;;;;;7.70;3.80;;;;;;;;;;106782;1277;25723;-79
2023/05/04 14:21:21;;;;;;;8.30;4.30;;;;;;;;;;106826;1277;25284;-82
2023/05/04 14:23:48;;;;;;;10.30;3.80;;;;;;;;;;106838;1277;25332;-80
2023/05/04 14:26:15;;;;;;;8.50;3.60;;;;;;;;;;106817;1277;23869;-78
2023/05/04 14:28:45;;;;;;;9.10;4.60;;;;;;;;;;106732;1277;24253;-77
2023/05/04 14:31:12;;;;;;;8.10;4.10;;;;;;;;;;106742;1277;22737;-78
2023/05/04 14:33:39;;;;;;;7.20;3.40;;;;;;;;;;106756;1277;24194;-77
2023/05/04 14:36:10;;;;;;;10.90;4.60;;;;;;;;;;110250;1278;22311;-81
2023/05/04 14:38:36;;;;;;;7.40;3.70;;;;;;;;;;110528;1259;22134;-77
2023/05/04 14:41:04;;;;;;;8.60;4.00;;;;;;;;;;110470;1278;22101;-78